الصفحة الرئيسية
METAR-TAF:

METAR-TAF

مطار :

وانجارتا, أستراليا

دائرة عرض: 36-24-57S, خط طول: 146-18-25E, ارتفاع: 154 متر

مراقبة الطقس الحالي

تاريخ ووقت الإصدار 5 دقيقة قبل الساعة 20:10UTC
ريح 2 عقدة من الغرب/الجنوب الغربي
درجة الحرارة 0°درجة مئوية
الرطوبة 93%
ضغط 1023 hPa
الرؤية 10 كم أو أكثر

METAR: YWGT 172010Z AUTO 25002KT 9999 // NCD M00/M01 Q1023

زمن: 06:15 (20:15 UTC)

توقعات

تاريخ ووقت الإصدار 1ساعة و 55 دقيقة قبل الساعة 18:20UTC
التوقعات صالحة من17 الساعة 20 UTC إلى 18 الساعة 08 UTC
ريح 6 عقدة من الغرب/الجنوب الغربي
الرؤية 10 كم أو أكثر
الغيوم لا تقل 1500 م ولا وجود لمزنة ركامية السحاب الأسود

TAF: YWGT 171820Z 1720/1808 25006KT CAVOK

أرصاد الطقس والتوقعات من أكثر من 4000 مطار (تقارير الطقس للمطار METAR والتنبؤ بالطقس بالمطارTAF).

المحطات المتاحة هي النقط الصفراء والحمراء على الخريطة.

حرك المؤشر فوق النقطة لمعرفة اسم المحطة.

ثم انقر لمعرفة أرصاد وتوقعات الطقس.

لتغيير الخارطة: اضغط على الأزرار الخضراء مع رمز الصليب الأسود للتكبير. على الزر الأخضر مع شرطة للتصغير، أو على الأسهم الخضراء للخرائط المجاورة.


METAR-TAF: